Time;durP1;ratioP1;P1;durP2;ratioP2;P2;SDS_P1;SDS_P2;PMS_P1;PMS_P2;Temp;Humidity;BMP_temperature;BMP_pressure;BME280_temperature;BME280_humidity;BME280_pressure;Samples;Min_cycle;Max_cycle;Signal;HPM_P1;HPM_P2
2024/01/26 00:02:24;;;;;;;1.50;1.40;;;18.60;41.90;;;;;;5021791;28;20225;-73
2024/01/26 00:04:50;;;;;;;1.53;1.43;;;18.60;41.90;;;;;;5023657;28;20226;-72
2024/01/26 00:07:15;;;;;;;1.57;1.47;;;18.60;41.90;;;;;;5028646;28;20324;-73
2024/01/26 00:09:41;;;;;;;1.50;1.40;;;18.60;41.90;;;;;;5035714;28;20234;-73
2024/01/26 00:12:07;;;;;;;1.70;1.60;;;18.60;41.90;;;;;;5021701;28;20714;-73
2024/01/26 00:14:32;;;;;;;1.40;1.30;;;18.60;42.00;;;;;;5027635;28;20880;-73
2024/01/26 00:16:58;;;;;;;1.53;1.43;;;18.60;41.90;;;;;;5011097;28;20226;-73
2024/01/26 00:19:23;;;;;;;1.70;1.60;;;18.60;41.90;;;;;;5031449;28;20349;-73
2024/01/26 00:21:49;;;;;;;1.40;1.30;;;18.60;42.00;;;;;;5022604;28;20686;-73
2024/01/26 00:24:15;;;;;;;1.53;1.43;;;18.50;41.80;;;;;;5015929;28;20211;-73
2024/01/26 00:26:40;;;;;;;1.40;1.30;;;18.50;41.80;;;;;;5021384;28;20245;-73
2024/01/26 00:29:06;;;;;;;1.57;1.47;;;18.50;41.80;;;;;;5024889;28;20241;-72
2024/01/26 00:31:32;;;;;;;1.30;1.20;;;18.60;41.90;;;;;;5029080;28;20820;-72
2024/01/26 00:33:58;;;;;;;1.40;1.30;;;18.50;41.80;;;;;;5026143;28;20445;-72
2024/01/26 00:36:23;;;;;;;1.33;1.23;;;18.50;41.80;;;;;;5024184;28;20218;-72
2024/01/26 00:38:49;;;;;;;1.60;1.50;;;18.50;41.90;;;;;;5023126;28;20221;-72
2024/01/26 00:41:15;;;;;;;1.40;1.30;;;18.50;41.80;;;;;;5015923;28;20225;-71
2024/01/26 00:43:41;;;;;;;1.60;1.47;;;18.50;41.80;;;;;;5029964;28;20280;-70
2024/01/26 00:46:07;;;;;;;1.50;1.40;;;18.50;41.80;;;;;;5017537;28;20516;-71
2024/01/26 00:48:33;;;;;;;1.40;1.30;;;18.50;41.80;;;;;;5031197;28;20238;-71
2024/01/26 00:50:59;;;;;;;2.17;1.70;;;18.50;41.80;;;;;;5024451;28;20235;-70
2024/01/26 00:53:25;;;;;;;1.40;1.30;;;18.50;42.00;;;;;;5025020;28;20218;-72
2024/01/26 00:55:51;;;;;;;1.70;1.60;;;18.50;41.90;;;;;;5025719;28;20821;-71
2024/01/26 00:58:17;;;;;;;1.47;1.37;;;18.50;41.90;;;;;;5025963;28;20465;-70
2024/01/26 01:00:43;;;;;;;1.40;1.30;;;18.50;41.90;;;;;;5018778;28;20670;-70
2024/01/26 01:03:09;;;;;;;1.37;1.27;;;18.50;41.90;;;;;;5019515;28;20447;-70
2024/01/26 01:05:34;;;;;;;1.30;1.20;;;18.50;41.80;;;;;;5007639;28;20962;-71
2024/01/26 01:08:00;;;;;;;1.47;1.30;;;18.50;41.90;;;;;;5034017;28;20226;-70
2024/01/26 01:10:26;;;;;;;1.77;1.67;;;18.50;41.80;;;;;;5020998;28;20334;-71
2024/01/26 01:12:54;;;;;;;1.43;1.33;;;18.50;41.90;;;;;;5028840;28;20697;-72
2024/01/26 01:15:23;;;;;;;1.67;1.57;;;18.50;41.90;;;;;;5028377;28;20783;-72
2024/01/26 01:17:49;;;;;;;2.43;1.40;;;18.50;41.90;;;;;;5029031;28;20437;-72
2024/01/26 01:20:15;;;;;;;1.30;1.20;;;18.50;41.90;;;;;;5031928;28;20985;-72
2024/01/26 01:22:41;;;;;;;1.60;1.50;;;18.50;42.70;;;;;;5035714;28;20443;-73
2024/01/26 01:25:09;;;;;;;1.43;1.33;;;18.50;41.90;;;;;;5024118;28;20218;-73
2024/01/26 01:27:36;;;;;;;1.33;1.23;;;18.50;41.90;;;;;;5021379;28;20526;-72
2024/01/26 01:30:06;;;;;;;1.37;1.27;;;18.50;41.90;;;;;;5019423;28;20425;-73
2024/01/26 01:32:32;;;;;;;1.20;1.10;;;18.50;41.90;;;;;;5017388;28;20492;-73
2024/01/26 01:34:57;;;;;;;1.30;1.20;;;18.50;42.00;;;;;;5035286;28;20409;-72
2024/01/26 01:37:23;;;;;;;1.40;1.30;;;18.50;41.90;;;;;;5035912;28;20809;-72
2024/01/26 01:39:49;;;;;;;1.33;1.23;;;18.50;42.00;;;;;;5024896;28;20333;-72
2024/01/26 01:42:14;;;;;;;1.33;1.23;;;18.50;42.00;;;;;;5034869;28;20657;-72
2024/01/26 01:44:48;;;;;;;1.37;1.27;;;18.50;42.00;;;;;;5038070;28;20223;-72
2024/01/26 01:47:15;;;;;;;1.53;1.43;;;18.50;42.00;;;;;;5030033;28;20634;-72
2024/01/26 01:49:42;;;;;;;1.20;1.10;;;18.50;42.00;;;;;;5029894;28;20463;-72
2024/01/26 01:52:16;;;;;;;1.30;1.20;;;18.50;42.00;;;;;;5023544;28;20463;-72
2024/01/26 01:54:41;;;;;;;1.40;1.30;;;18.50;42.00;;;;;;5020979;28;20477;-70
2024/01/26 01:57:10;;;;;;;1.83;1.10;;;18.50;42.00;;;;;;5023494;28;20454;-71
2024/01/26 01:59:37;;;;;;;2.17;1.13;;;18.50;42.00;;;;;;5025475;28;20233;-71
2024/01/26 02:02:03;;;;;;;1.20;1.10;;;18.50;42.00;;;;;;5026530;28;20447;-70
2024/01/26 02:04:28;;;;;;;1.47;1.37;;;18.50;42.00;;;;;;5034009;28;20441;-70
2024/01/26 02:07:02;;;;;;;1.30;1.20;;;18.50;42.00;;;;;;5033822;28;21009;-71
2024/01/26 02:09:29;;;;;;;1.27;1.17;;;18.50;42.00;;;;;;5034154;28;20223;-70
2024/01/26 02:11:55;;;;;;;1.30;1.20;;;18.50;42.00;;;;;;5021256;28;20805;-71
2024/01/26 02:14:22;;;;;;;1.30;1.20;;;18.50;42.00;;;;;;5029240;28;21068;-71
2024/01/26 02:16:58;;;;;;;1.20;1.10;;;18.50;42.00;;;;;;5024772;28;21310;-70
2024/01/26 02:19:25;;;;;;;1.10;1.00;;;18.50;42.00;;;;;;5027709;28;20435;-72
2024/01/26 02:21:51;;;;;;;1.40;1.30;;;18.50;42.00;;;;;;5035127;28;20992;-72
2024/01/26 02:24:17;;;;;;;1.07;0.97;;;18.50;42.10;;;;;;5026739;28;20475;-72
2024/01/26 02:26:43;;;;;;;1.40;1.30;;;18.50;42.00;;;;;;4998257;28;20217;-72
2024/01/26 02:29:09;;;;;;;1.07;1.07;;;18.50;42.00;;;;;;5020932;28;20231;-72
2024/01/26 02:31:34;;;;;;;1.20;1.10;;;18.50;42.00;;;;;;5014248;28;20231;-72
2024/01/26 02:34:00;;;;;;;1.00;1.00;;;18.50;42.00;;;;;;5020393;28;20281;-72
2024/01/26 02:36:32;;;;;;;0.90;0.90;;;18.50;42.00;;;;;;5013393;28;20288;-72
2024/01/26 02:38:57;;;;;;;1.27;1.17;;;18.50;42.00;;;;;;5024249;28;25140;-72
2024/01/26 02:41:23;;;;;;;1.47;1.37;;;18.50;42.00;;;;;;5013901;28;20485;-72
2024/01/26 02:43:49;;;;;;;1.40;1.30;;;18.50;42.00;;;;;;5013757;28;20694;-72
2024/01/26 02:46:15;;;;;;;1.10;0.97;;;18.50;42.00;;;;;;5018527;28;20242;-72
2024/01/26 02:48:40;;;;;;;1.20;1.00;;;18.50;42.10;;;;;;5021486;28;20469;-72
2024/01/26 02:51:06;;;;;;;1.30;1.20;;;18.50;42.10;;;;;;5035608;28;20249;-72
2024/01/26 02:53:32;;;;;;;1.20;1.10;;;18.50;42.10;;;;;;5023677;28;20206;-72
2024/01/26 02:55:57;;;;;;;1.07;0.97;;;18.50;42.00;;;;;;5024294;28;20506;-72
2024/01/26 02:58:23;;;;;;;1.40;1.30;;;18.50;42.00;;;;;;5020579;28;20237;-72
2024/01/26 03:00:49;;;;;;;1.23;1.13;;;18.50;42.10;;;;;;5026702;28;20220;-72
2024/01/26 03:03:14;;;;;;;1.20;1.10;;;18.50;42.10;;;;;;5023829;28;20268;-72
2024/01/26 03:05:40;;;;;;;1.10;1.00;;;18.50;42.00;;;;;;5026606;28;20247;-72
2024/01/26 03:08:07;;;;;;;1.47;1.00;;;18.50;42.10;;;;;;5029610;28;20773;-72
2024/01/26 03:10:32;;;;;;;0.80;0.80;;;18.50;42.10;;;;;;5015782;28;20440;-72
2024/01/26 03:12:58;;;;;;;1.20;1.10;;;18.50;42.00;;;;;;5013971;28;21006;-72
2024/01/26 03:15:24;;;;;;;1.30;1.20;;;18.50;42.10;;;;;;5020819;28;20303;-72
2024/01/26 03:17:49;;;;;;;0.90;0.90;;;18.50;42.10;;;;;;5026621;28;20287;-72
2024/01/26 03:20:16;;;;;;;1.30;1.20;;;18.50;42.00;;;;;;5008521;28;20222;-72
2024/01/26 03:22:43;;;;;;;1.10;1.00;;;18.50;42.10;;;;;;5031152;28;20218;-72
2024/01/26 03:25:09;;;;;;;1.10;1.00;;;18.50;42.00;;;;;;5028449;28;20463;-72
2024/01/26 03:27:35;;;;;;;1.10;1.00;;;18.50;42.10;;;;;;5027867;28;20456;-72
2024/01/26 03:30:00;;;;;;;1.10;1.00;;;18.50;42.10;;;;;;5026356;28;20222;-71
2024/01/26 03:32:26;;;;;;;1.00;0.90;;;18.50;42.10;;;;;;5016611;28;20321;-71
2024/01/26 03:34:51;;;;;;;1.00;0.90;;;18.50;42.10;;;;;;5017218;28;20300;-71
2024/01/26 03:37:17;;;;;;;1.30;1.20;;;18.50;42.10;;;;;;5011102;28;20301;-72
2024/01/26 03:39:43;;;;;;;1.20;1.10;;;18.50;42.10;;;;;;5020971;28;20287;-71
2024/01/26 03:42:11;;;;;;;1.10;1.00;;;18.50;42.10;;;;;;5020466;28;20233;-70
2024/01/26 03:44:37;;;;;;;1.07;0.97;;;18.50;42.10;;;;;;5016203;28;20224;-71
2024/01/26 03:47:03;;;;;;;1.10;1.00;;;18.50;42.10;;;;;;5016312;28;20436;-70
2024/01/26 03:49:29;;;;;;;0.90;0.90;;;18.50;42.10;;;;;;5029417;28;20826;-70
2024/01/26 03:51:55;;;;;;;1.03;1.03;;;18.50;42.10;;;;;;5017759;28;20463;-70
2024/01/26 03:54:20;;;;;;;1.00;0.90;;;18.50;42.10;;;;;;5022929;28;20265;-70
2024/01/26 03:56:46;;;;;;;1.17;1.07;;;18.50;42.10;;;;;;5021980;28;20265;-71
2024/01/26 03:59:11;;;;;;;1.10;1.00;;;18.50;42.10;;;;;;5021403;28;20227;-71
2024/01/26 04:01:37;;;;;;;1.10;1.00;;;18.50;42.10;;;;;;5021101;28;20225;-71
2024/01/26 04:04:03;;;;;;;1.17;1.07;;;18.50;42.10;;;;;;5022530;28;20710;-71
2024/01/26 04:06:29;;;;;;;1.07;1.07;;;18.50;42.10;;;;;;5013701;28;20227;-70
2024/01/26 04:08:56;;;;;;;0.90;0.90;;;18.50;42.10;;;;;;5032471;28;20344;-71
2024/01/26 04:11:21;;;;;;;0.87;0.87;;;18.50;42.10;;;;;;5020938;28;20261;-72
2024/01/26 04:13:47;;;;;;;1.20;1.10;;;18.50;42.10;;;;;;5023702;28;20938;-72
2024/01/26 04:16:13;;;;;;;0.90;0.90;;;18.50;42.10;;;;;;5023241;28;20214;-72
2024/01/26 04:18:38;;;;;;;0.90;0.80;;;18.50;42.10;;;;;;5015592;28;20229;-72
2024/01/26 04:21:04;;;;;;;0.93;0.93;;;18.50;42.10;;;;;;5031337;28;20221;-70
2024/01/26 04:23:29;;;;;;;0.90;0.90;;;18.50;42.10;;;;;;5020748;28;20230;-70
2024/01/26 04:25:55;;;;;;;1.57;0.97;;;18.50;42.10;;;;;;5030589;28;20218;-71
2024/01/26 04:28:20;;;;;;;1.20;1.10;;;18.50;42.10;;;;;;5030986;28;21992;-71
2024/01/26 04:30:46;;;;;;;1.00;1.00;;;18.50;42.10;;;;;;5029100;28;20623;-70
2024/01/26 04:33:12;;;;;;;1.10;1.00;;;18.50;42.10;;;;;;5032014;28;20318;-71
2024/01/26 04:35:37;;;;;;;1.10;1.00;;;18.50;42.10;;;;;;5018788;28;20206;-70
2024/01/26 04:38:05;;;;;;;1.50;0.90;;;18.50;42.10;;;;;;5019853;28;20588;-70
2024/01/26 04:40:31;;;;;;;1.20;1.10;;;18.50;42.10;;;;;;5033457;28;20226;-71
2024/01/26 04:42:56;;;;;;;0.90;0.90;;;18.50;42.10;;;;;;5030433;28;22228;-70
2024/01/26 04:45:22;;;;;;;1.40;1.30;;;18.50;42.10;;;;;;5030491;28;20218;-71
2024/01/26 04:47:47;;;;;;;0.90;0.90;;;18.50;42.10;;;;;;5027004;28;20315;-71
2024/01/26 04:50:13;;;;;;;1.00;0.90;;;18.50;42.00;;;;;;5027552;28;20234;-71
2024/01/26 04:52:39;;;;;;;1.00;0.90;;;18.50;42.10;;;;;;5023667;28;20258;-71
2024/01/26 04:55:08;;;;;;;1.53;0.90;;;18.50;42.00;;;;;;5028627;28;20219;-70
2024/01/26 04:57:35;;;;;;;0.97;0.87;;;18.50;42.10;;;;;;5055380;28;20455;-70
2024/01/26 05:00:00;;;;;;;1.00;1.00;;;18.50;42.00;;;;;;5026951;28;20423;-71
2024/01/26 05:02:26;;;;;;;1.10;1.00;;;18.50;42.00;;;;;;5025327;28;20438;-71
2024/01/26 05:04:52;;;;;;;0.90;0.77;;;18.50;42.00;;;;;;5031646;28;20275;-71
2024/01/26 05:07:17;;;;;;;0.80;0.80;;;18.50;42.00;;;;;;5022316;28;20257;-71
2024/01/26 05:09:43;;;;;;;0.73;0.73;;;18.50;42.00;;;;;;5027111;28;20264;-72
2024/01/26 05:12:09;;;;;;;0.80;0.80;;;18.50;42.00;;;;;;5021465;28;20690;-72
2024/01/26 05:14:37;;;;;;;0.90;0.80;;;18.50;41.90;;;;;;5027280;28;20229;-72
2024/01/26 05:17:03;;;;;;;1.00;0.90;;;18.50;41.90;;;;;;5020738;28;21285;-72
2024/01/26 05:19:29;;;;;;;0.80;0.67;;;18.60;42.00;;;;;;5025688;28;20555;-72
2024/01/26 05:21:54;;;;;;;0.93;0.70;;;18.60;42.70;;;;;;5022629;28;20817;-71
2024/01/26 05:24:20;;;;;;;0.70;0.70;;;18.60;41.90;;;;;;5023224;28;20670;-70
2024/01/26 05:26:46;;;;;;;0.90;0.80;;;18.60;41.90;;;;;;5017284;28;20652;-73
2024/01/26 05:29:12;;;;;;;1.00;0.90;;;18.60;41.80;;;;;;4985207;28;20222;-74
2024/01/26 05:31:40;;;;;;;1.30;1.00;;;18.60;41.80;;;;;;4994184;28;20259;-74
2024/01/26 05:34:06;;;;;;;0.80;0.80;;;18.60;41.80;;;;;;5016274;28;20917;-76
2024/01/26 05:36:32;;;;;;;0.80;0.80;;;18.60;41.80;;;;;;5025713;28;20430;-73
2024/01/26 05:38:57;;;;;;;1.00;0.90;;;18.60;41.80;;;;;;5054943;28;20306;-75
2024/01/26 05:41:23;;;;;;;0.80;0.77;;;18.60;41.80;;;;;;5022495;28;20253;-73
2024/01/26 05:43:49;;;;;;;0.83;0.83;;;18.70;41.90;;;;;;5033778;28;20595;-70
2024/01/26 05:46:14;;;;;;;0.80;0.80;;;18.70;41.90;;;;;;5017202;28;20736;-70
2024/01/26 05:48:43;;;;;;;0.80;0.80;;;18.70;41.90;;;;;;5034983;28;20224;-70
2024/01/26 05:51:09;;;;;;;1.13;0.80;;;18.60;41.80;;;;;;5023531;28;20277;-71
2024/01/26 05:53:35;;;;;;;0.80;0.80;;;18.70;41.90;;;;;;5016776;28;20604;-70
2024/01/26 05:56:00;;;;;;;0.90;0.80;;;18.70;41.90;;;;;;5014096;28;20545;-70
2024/01/26 05:58:26;;;;;;;0.90;0.80;;;18.70;41.80;;;;;;5019114;28;20673;-70
2024/01/26 06:00:51;;;;;;;1.13;0.80;;;18.70;41.90;;;;;;5024381;28;20224;-72
2024/01/26 06:03:18;;;;;;;1.57;0.80;;;18.70;41.80;;;;;;5020492;28;20338;-71
2024/01/26 06:05:43;;;;;;;0.80;0.73;;;18.60;41.70;;;;;;5017952;28;20242;-72
2024/01/26 06:08:09;;;;;;;0.83;0.80;;;18.70;41.90;;;;;;5016242;28;20521;-73
2024/01/26 06:10:35;;;;;;;1.60;0.90;;;18.60;41.80;;;;;;5025213;28;20554;-73
2024/01/26 06:13:00;;;;;;;1.10;1.00;;;18.70;41.90;;;;;;5014580;28;20246;-72
2024/01/26 06:15:26;;;;;;;0.80;0.80;;;18.70;41.80;;;;;;5022651;28;20974;-73
2024/01/26 06:17:51;;;;;;;1.03;0.93;;;18.60;41.80;;;;;;5009917;28;20257;-72
2024/01/26 06:20:17;;;;;;;1.00;0.90;;;18.60;41.80;;;;;;5016899;28;21462;-72
2024/01/26 06:22:43;;;;;;;2.03;0.90;;;18.70;41.90;;;;;;5037854;28;20712;-72
2024/01/26 06:25:09;;;;;;;1.60;1.00;;;18.70;41.90;;;;;;5023602;28;21323;-72
2024/01/26 06:27:35;;;;;;;1.33;1.10;;;18.70;41.80;;;;;;5033939;28;20565;-72
2024/01/26 06:30:00;;;;;;;1.00;0.90;;;18.70;41.90;;;;;;5021243;28;20279;-72
2024/01/26 06:32:27;;;;;;;2.10;0.90;;;18.70;41.80;;;;;;5015838;28;20317;-72
2024/01/26 06:34:53;;;;;;;2.20;0.80;;;18.70;41.80;;;;;;5019806;28;20238;-72
2024/01/26 06:37:18;;;;;;;1.20;1.03;;;18.70;41.80;;;;;;5024319;28;20442;-72
2024/01/26 06:39:44;;;;;;;1.73;0.90;;;18.70;41.80;;;;;;5034795;28;20243;-70
2024/01/26 06:42:10;;;;;;;1.17;0.70;;;18.70;41.90;;;;;;5026322;28;20265;-71
2024/01/26 06:44:35;;;;;;;1.57;0.90;;;18.70;41.80;;;;;;5031700;28;20284;-69
2024/01/26 06:47:01;;;;;;;0.87;0.80;;;18.70;41.90;;;;;;5025807;28;20241;-69
2024/01/26 06:49:26;;;;;;;0.97;0.87;;;18.70;41.80;;;;;;5032771;28;20615;-69
2024/01/26 06:51:52;;;;;;;1.00;0.90;;;18.70;41.90;;;;;;5020429;28;20222;-70
2024/01/26 06:54:18;;;;;;;1.27;1.00;;;18.70;41.90;;;;;;5021367;28;20222;-69
2024/01/26 06:56:44;;;;;;;0.80;0.80;;;18.70;41.80;;;;;;5038454;28;20240;-71
2024/01/26 06:59:09;;;;;;;0.90;0.80;;;18.70;41.90;;;;;;5025268;28;20309;-70
2024/01/26 07:01:35;;;;;;;0.90;0.83;;;18.70;41.80;;;;;;5026256;28;20226;-70
2024/01/26 07:04:00;;;;;;;1.00;0.87;;;18.70;41.90;;;;;;5031932;28;20821;-71
2024/01/26 07:06:26;;;;;;;1.53;0.77;;;18.70;41.80;;;;;;5015948;28;20214;-70
2024/01/26 07:08:52;;;;;;;1.30;0.90;;;18.70;41.80;;;;;;5028106;28;20279;-71
2024/01/26 07:11:19;;;;;;;1.93;0.80;;;18.70;41.90;;;;;;5014663;28;20226;-70
2024/01/26 07:13:45;;;;;;;0.80;0.77;;;18.70;41.90;;;;;;5022793;28;20211;-71
2024/01/26 07:16:10;;;;;;;1.00;0.90;;;18.70;41.90;;;;;;5021040;28;20466;-68
2024/01/26 07:18:36;;;;;;;1.00;0.90;;;18.70;41.80;;;;;;5022126;28;20785;-76
2024/01/26 07:21:06;;;;;;;0.83;0.70;;;18.70;41.80;;;;;;5012678;28;20312;-72
2024/01/26 07:23:32;;;;;;;1.13;0.80;;;18.70;41.90;;;;;;5043357;28;20242;-71
2024/01/26 07:25:58;;;;;;;0.80;0.70;;;18.70;41.90;;;;;;5017944;28;20537;-70
2024/01/26 07:28:24;;;;;;;1.37;0.90;;;18.70;41.90;;;;;;5032495;28;20600;-71
2024/01/26 07:30:49;;;;;;;0.90;0.80;;;18.70;42.00;;;;;;5009530;28;20216;-72
2024/01/26 07:33:15;;;;;;;0.80;0.80;;;18.70;41.90;;;;;;5028023;28;20261;-72
2024/01/26 07:35:41;;;;;;;0.80;0.70;;;18.70;41.90;;;;;;5027416;28;20221;-71
2024/01/26 07:38:06;;;;;;;0.80;0.70;;;18.70;41.90;;;;;;5028346;28;20229;-71
2024/01/26 07:40:32;;;;;;;0.90;0.70;;;18.70;41.90;;;;;;5019465;28;20230;-72
2024/01/26 07:42:57;;;;;;;0.80;0.80;;;18.70;41.90;;;;;;5023964;28;20225;-71
2024/01/26 07:45:23;;;;;;;0.77;0.77;;;18.70;41.90;;;;;;5034512;28;20319;-72
2024/01/26 07:47:48;;;;;;;0.70;0.70;;;18.70;41.90;;;;;;5031528;28;20229;-71
2024/01/26 07:50:14;;;;;;;0.73;0.73;;;18.70;41.90;;;;;;5019771;28;20229;-72
2024/01/26 07:52:40;;;;;;;1.13;0.70;;;18.70;41.90;;;;;;5024849;28;20230;-72
2024/01/26 07:55:06;;;;;;;0.93;0.87;;;18.70;41.90;;;;;;5034502;28;20709;-72
2024/01/26 07:57:31;;;;;;;1.00;0.90;;;18.70;41.90;;;;;;5034112;28;20232;-72
2024/01/26 07:59:57;;;;;;;0.80;0.80;;;18.70;41.90;;;;;;5042687;28;20630;-72
2024/01/26 08:02:22;;;;;;;0.70;0.70;;;18.70;41.90;;;;;;5041146;28;20222;-72
2024/01/26 08:04:48;;;;;;;0.97;0.87;;;18.70;42.00;;;;;;5030234;28;20948;-72
2024/01/26 08:07:15;;;;;;;1.43;0.90;;;18.70;41.90;;;;;;5027945;28;20365;-73
2024/01/26 08:09:42;;;;;;;0.90;0.73;;;18.70;42.00;;;;;;5031898;28;20253;-72
2024/01/26 08:12:08;;;;;;;0.70;0.70;;;18.70;42.00;;;;;;5019696;28;21057;-71
2024/01/26 08:14:33;;;;;;;0.90;0.80;;;18.70;42.00;;;;;;5033500;28;20562;-72
2024/01/26 08:16:59;;;;;;;0.90;0.80;;;18.70;42.00;;;;;;5038974;28;20276;-72
2024/01/26 08:19:25;;;;;;;0.90;0.80;;;18.70;42.00;;;;;;5028599;28;20640;-72
2024/01/26 08:21:50;;;;;;;1.60;1.00;;;18.70;42.00;;;;;;5020625;28;20755;-72
2024/01/26 08:24:16;;;;;;;0.70;0.70;;;18.70;41.90;;;;;;5069395;28;20287;-72
2024/01/26 08:26:41;;;;;;;0.73;0.70;;;18.70;42.00;;;;;;5027910;28;20225;-72
2024/01/26 08:29:07;;;;;;;0.90;0.70;;;18.70;42.00;;;;;;5029601;28;20238;-72
2024/01/26 08:31:34;;;;;;;0.83;0.70;;;18.70;42.00;;;;;;5005600;28;20705;-72
2024/01/26 08:33:59;;;;;;;0.77;0.77;;;18.70;42.00;;;;;;5039693;28;20851;-72
2024/01/26 08:36:25;;;;;;;1.50;1.33;;;18.70;42.00;;;;;;5054922;28;20498;-72
2024/01/26 08:38:53;;;;;;;0.80;0.70;;;18.70;42.00;;;;;;5030648;28;20237;-72
2024/01/26 08:41:18;;;;;;;0.70;0.70;;;18.70;42.00;;;;;;5020080;28;20215;-72
2024/01/26 08:43:44;;;;;;;0.97;0.87;;;18.70;42.10;;;;;;5029209;28;20502;-72
2024/01/26 08:46:10;;;;;;;0.90;0.80;;;18.60;41.90;;;;;;5017981;28;20224;-75
2024/01/26 08:48:35;;;;;;;1.10;1.00;;;18.60;41.90;;;;;;5024927;28;20561;-72
2024/01/26 08:51:02;;;;;;;0.70;0.70;;;18.70;42.00;;;;;;5036541;28;20962;-72
2024/01/26 08:53:27;;;;;;;1.00;0.70;;;18.70;42.00;;;;;;5029180;28;20218;-72
2024/01/26 08:55:53;;;;;;;1.10;0.77;;;18.70;42.00;;;;;;5032365;28;20791;-72
2024/01/26 08:58:18;;;;;;;0.80;0.77;;;18.70;42.00;;;;;;5031998;28;20222;-71
2024/01/26 09:00:45;;;;;;;0.80;0.70;;;18.70;42.00;;;;;;5030614;28;20225;-70
2024/01/26 09:03:11;;;;;;;0.70;0.70;;;18.70;42.10;;;;;;5036350;28;20218;-70
2024/01/26 09:05:36;;;;;;;1.27;0.60;;;18.70;42.00;;;;;;5025725;28;20457;-70
2024/01/26 09:08:03;;;;;;;0.90;0.87;;;18.60;41.90;;;;;;5036402;28;20226;-72
2024/01/26 09:10:28;;;;;;;1.00;0.70;;;18.60;42.00;;;;;;5019211;28;21406;-70
2024/01/26 09:12:54;;;;;;;0.80;0.70;;;18.60;41.90;;;;;;5023469;28;20535;-69
2024/01/26 09:15:19;;;;;;;0.80;0.80;;;18.70;42.10;;;;;;5023886;28;20317;-71
2024/01/26 09:17:45;;;;;;;0.70;0.60;;;18.60;42.00;;;;;;5032695;28;20245;-71
2024/01/26 09:20:14;;;;;;;0.80;0.70;;;18.60;42.00;;;;;;5022658;28;20283;-69
2024/01/26 09:22:39;;;;;;;0.70;0.70;;;18.60;42.00;;;;;;5027700;28;20709;-70
2024/01/26 09:25:05;;;;;;;1.70;0.77;;;18.60;42.00;;;;;;5029018;28;20458;-70
2024/01/26 09:27:31;;;;;;;0.80;0.70;;;18.60;42.00;;;;;;5031916;28;20230;-69
2024/01/26 09:29:56;;;;;;;0.67;0.60;;;18.60;42.00;;;;;;5028766;28;20464;-70
2024/01/26 09:32:22;;;;;;;0.90;0.80;;;18.60;42.00;;;;;;5015768;28;20312;-69
2024/01/26 09:34:48;;;;;;;0.73;0.60;;;18.60;42.00;;;;;;5026165;28;20214;-70
2024/01/26 09:37:13;;;;;;;1.10;0.80;;;18.60;42.10;;;;;;5030766;28;20686;-71
2024/01/26 09:39:39;;;;;;;1.37;0.60;;;18.60;42.10;;;;;;5037044;28;20221;-70
2024/01/26 09:42:05;;;;;;;0.87;0.70;;;18.60;42.10;;;;;;5017320;28;20231;-70
2024/01/26 09:44:31;;;;;;;1.10;0.70;;;18.60;42.10;;;;;;5019607;28;20226;-71
2024/01/26 09:46:58;;;;;;;0.80;0.70;;;18.60;42.10;;;;;;5026106;28;20485;-70
2024/01/26 09:49:27;;;;;;;0.87;0.80;;;18.60;42.10;;;;;;5021312;28;20230;-69
2024/01/26 09:51:53;;;;;;;0.80;0.70;;;18.60;42.10;;;;;;5025496;28;20446;-69
2024/01/26 09:54:20;;;;;;;0.87;0.80;;;18.60;42.10;;;;;;5038853;28;20438;-69
2024/01/26 09:56:46;;;;;;;0.80;0.70;;;18.60;42.10;;;;;;5029063;28;20705;-70
2024/01/26 09:59:11;;;;;;;0.90;0.70;;;18.60;42.20;;;;;;5021642;28;20471;-70
2024/01/26 10:01:39;;;;;;;1.03;0.70;;;18.60;42.10;;;;;;5028031;28;20419;-70
2024/01/26 10:04:04;;;;;;;0.93;0.73;;;18.60;42.20;;;;;;5018848;28;20226;-70
2024/01/26 10:06:30;;;;;;;0.70;0.70;;;18.60;42.10;;;;;;5021142;28;20840;-69
2024/01/26 10:08:56;;;;;;;0.90;0.70;;;18.60;42.20;;;;;;5015573;28;20761;-69
2024/01/26 10:11:22;;;;;;;0.87;0.77;;;18.60;42.20;;;;;;5028646;28;20709;-71
2024/01/26 10:13:47;;;;;;;0.70;0.60;;;18.60;42.20;;;;;;5033945;28;20223;-71
2024/01/26 10:16:13;;;;;;;1.43;0.80;;;18.60;42.20;;;;;;5021247;28;20211;-71
2024/01/26 10:18:43;;;;;;;1.00;0.80;;;18.60;42.20;;;;;;5021121;28;20432;-70
2024/01/26 10:21:14;;;;;;;0.80;0.70;;;18.60;42.20;;;;;;5013447;28;20321;-70
2024/01/26 10:23:40;;;;;;;0.80;0.70;;;18.60;42.20;;;;;;5026434;28;20452;-71
2024/01/26 10:26:06;;;;;;;0.77;0.73;;;18.60;42.20;;;;;;5014442;28;20461;-72
2024/01/26 10:28:32;;;;;;;0.70;0.60;;;18.60;42.20;;;;;;5021118;28;20976;-72
2024/01/26 10:30:58;;;;;;;0.80;0.70;;;18.60;42.30;;;;;;5017054;28;20435;-72
2024/01/26 10:33:24;;;;;;;0.80;0.70;;;18.60;42.30;;;;;;5033397;28;20230;-72
2024/01/26 10:35:58;;;;;;;0.80;0.80;;;18.60;42.20;;;;;;5017990;28;20329;-72
2024/01/26 10:38:25;;;;;;;1.13;1.03;;;18.60;42.20;;;;;;5036397;28;20536;-74
2024/01/26 10:41:04;;;;;;;0.80;0.70;;;18.60;42.20;;;;;;5028218;28;20458;-73
2024/01/26 10:43:31;;;;;;;0.60;0.60;;;18.60;42.30;;;;;;5021594;28;20483;-73
2024/01/26 10:45:57;;;;;;;1.10;0.67;;;18.60;42.40;;;;;;5020519;28;20465;-73
2024/01/26 10:48:25;;;;;;;0.70;0.60;;;18.60;42.30;;;;;;5014909;28;20789;-73
2024/01/26 10:50:50;;;;;;;1.30;0.70;;;18.60;42.30;;;;;;5033069;28;20431;-73
2024/01/26 10:53:17;;;;;;;0.77;0.60;;;18.60;42.30;;;;;;5028092;28;20515;-73
2024/01/26 10:55:44;;;;;;;0.80;0.60;;;18.60;42.30;;;;;;5016454;28;20215;-73
2024/01/26 10:58:10;;;;;;;0.70;0.60;;;18.60;42.30;;;;;;5012922;28;20457;-72
2024/01/26 11:00:35;;;;;;;0.60;0.60;;;18.60;42.30;;;;;;5021686;28;21162;-73
2024/01/26 11:03:03;;;;;;;0.70;0.70;;;18.60;42.30;;;;;;5049255;28;20444;-73
2024/01/26 11:05:29;;;;;;;0.80;0.70;;;18.60;42.30;;;;;;5028003;28;20733;-74
2024/01/26 11:07:54;;;;;;;0.60;0.50;;;18.60;42.30;;;;;;5023021;28;20528;-73
2024/01/26 11:10:23;;;;;;;0.70;0.70;;;18.60;42.40;;;;;;5028024;28;20226;-73
2024/01/26 11:13:03;;;;;;;0.70;0.70;;;18.60;42.30;;;;;;5019357;28;20243;-74
2024/01/26 11:15:29;;;;;;;0.90;0.80;;;18.60;42.30;;;;;;5033640;28;20453;-73
2024/01/26 11:17:56;;;;;;;0.70;0.60;;;18.60;42.40;;;;;;5028092;28;20464;-73
2024/01/26 11:20:29;;;;;;;0.70;0.60;;;18.60;42.40;;;;;;5040267;28;20941;-71
2024/01/26 11:23:15;;;;;;;0.90;0.80;;;18.60;42.40;;;;;;5021116;28;20438;-71
2024/01/26 11:25:43;;;;;;;1.00;0.80;;;18.60;42.30;;;;;;5021076;28;20440;-71
2024/01/26 11:28:10;;;;;;;0.80;0.77;;;18.60;43.20;;;;;;5021744;28;20462;-71
2024/01/26 11:30:37;;;;;;;0.60;0.60;;;18.60;42.30;;;;;;5031751;28;20967;-73
2024/01/26 11:33:13;;;;;;;1.87;1.10;;;18.60;42.40;;;;;;5030136;28;20450;-73
2024/01/26 11:35:39;;;;;;;0.83;0.70;;;18.60;42.40;;;;;;5029693;28;20426;-73
2024/01/26 11:38:05;;;;;;;0.93;0.70;;;18.60;42.40;;;;;;5042665;28;20446;-73
2024/01/26 11:40:31;;;;;;;0.90;0.70;;;18.60;42.40;;;;;;5042045;28;20582;-73
2024/01/26 11:42:57;;;;;;;0.60;0.60;;;18.60;42.40;;;;;;5040116;28;20532;-73
2024/01/26 11:45:44;;;;;;;0.80;0.60;;;18.60;42.30;;;;;;5033673;28;20235;-72
2024/01/26 11:48:11;;;;;;;0.70;0.67;;;18.60;42.30;;;;;;5042609;28;20732;-72
2024/01/26 11:50:37;;;;;;;1.23;0.70;;;18.60;42.40;;;;;;5032928;28;20520;-72
2024/01/26 11:53:04;;;;;;;0.70;0.60;;;18.60;43.20;;;;;;5031544;28;20809;-72
2024/01/26 11:55:30;;;;;;;1.40;0.70;;;18.60;42.30;;;;;;5054702;28;20504;-72
2024/01/26 11:57:56;;;;;;;0.70;0.60;;;18.60;42.30;;;;;;5041197;28;20443;-72
2024/01/26 12:00:22;;;;;;;0.77;0.60;;;18.60;42.30;;;;;;5024498;28;20222;-72
2024/01/26 12:02:48;;;;;;;0.70;0.67;;;18.60;42.40;;;;;;5016232;28;20431;-72
2024/01/26 12:05:16;;;;;;;1.17;0.60;;;18.60;42.30;;;;;;5018329;28;20235;-72
2024/01/26 12:07:41;;;;;;;0.90;0.63;;;18.60;42.30;;;;;;5021990;28;20229;-72
2024/01/26 12:10:08;;;;;;;0.80;0.70;;;18.60;42.30;;;;;;5038365;28;20426;-72
2024/01/26 12:12:34;;;;;;;1.10;0.60;;;18.60;42.30;;;;;;5030595;28;20317;-72
2024/01/26 12:15:04;;;;;;;1.00;0.70;;;18.60;42.30;;;;;;5037130;28;20455;-72
2024/01/26 12:17:30;;;;;;;0.70;0.60;;;18.60;42.30;;;;;;5030114;28;20419;-72
2024/01/26 12:19:55;;;;;;;0.80;0.70;;;18.60;42.30;;;;;;5057892;28;20443;-72
2024/01/26 12:22:21;;;;;;;1.00;0.63;;;18.60;42.30;;;;;;5042571;28;20227;-72
2024/01/26 12:24:46;;;;;;;0.90;0.60;;;18.60;42.20;;;;;;5037955;28;20219;-72
2024/01/26 12:27:12;;;;;;;0.80;0.63;;;18.60;42.30;;;;;;5029832;28;20226;-71
2024/01/26 12:29:38;;;;;;;0.70;0.60;;;18.60;42.20;;;;;;5025319;28;20231;-72
2024/01/26 12:32:05;;;;;;;0.80;0.60;;;18.60;42.30;;;;;;5035428;28;20747;-72
2024/01/26 12:34:33;;;;;;;0.93;0.60;;;18.60;42.20;;;;;;5038898;28;20269;-72
2024/01/26 12:37:19;;;;;;;1.53;0.70;;;18.60;42.20;;;;;;5033398;28;20423;-72
2024/01/26 12:39:45;;;;;;;0.60;0.50;;;18.60;42.20;;;;;;5031059;28;20437;-71
2024/01/26 12:42:10;;;;;;;0.87;0.70;;;18.60;42.30;;;;;;5022972;28;20482;-69
2024/01/26 12:44:39;;;;;;;0.80;0.70;;;18.60;42.20;;;;;;5023616;28;20269;-67